createdAt,value
2018-05-09T00:00:17.558Z,19.98
2018-05-09T00:01:17.557Z,19.86
2018-05-09T00:02:17.562Z,19.98
2018-05-09T00:03:17.562Z,19.92
2018-05-09T00:04:17.558Z,19.82
2018-05-09T00:05:17.556Z,19.98
2018-05-09T00:06:17.562Z,19.80
2018-05-09T00:07:17.562Z,19.83
2018-05-09T00:08:17.561Z,19.82
2018-05-09T00:09:17.561Z,19.78
2018-05-09T00:10:17.555Z,19.76
2018-05-09T00:11:17.555Z,19.79
2018-05-09T00:12:17.555Z,19.76
2018-05-09T00:13:17.554Z,19.83
2018-05-09T00:14:17.558Z,19.75
2018-05-09T00:15:17.566Z,19.79
2018-05-09T00:16:17.559Z,19.79
2018-05-09T00:17:17.558Z,19.78
2018-05-09T00:18:17.552Z,19.80
2018-05-09T00:19:17.558Z,19.70
2018-05-09T00:20:17.557Z,19.79
2018-05-09T00:21:17.555Z,19.70
2018-05-09T00:22:17.551Z,19.68
2018-05-09T00:23:17.551Z,19.70
2018-05-09T00:24:17.550Z,19.65
2018-05-09T00:25:17.549Z,19.71
2018-05-09T00:26:17.553Z,19.72
2018-05-09T00:27:17.553Z,19.75
2018-05-09T00:28:17.553Z,19.79
2018-05-09T00:29:17.552Z,19.79
2018-05-09T00:30:17.548Z,19.71
2018-05-09T00:31:17.551Z,19.65
2018-05-09T00:32:17.548Z,19.72
2018-05-09T00:33:17.550Z,19.70
2018-05-09T00:34:17.554Z,19.65
2018-05-09T00:35:17.555Z,19.70
2018-05-09T00:36:17.550Z,19.71
2018-05-09T00:37:17.544Z,19.71
2018-05-09T00:38:17.550Z,19.67
2018-05-09T00:39:17.549Z,19.68
2018-05-09T00:40:17.548Z,19.68
2018-05-09T00:41:17.547Z,19.67
2018-05-09T00:42:17.543Z,19.67
2018-05-09T00:43:17.544Z,19.62
2018-05-09T00:44:17.542Z,19.60
2018-05-09T00:45:17.541Z,19.58
2018-05-09T00:46:17.546Z,19.57
2018-05-09T00:47:17.545Z,19.57
2018-05-09T00:48:17.546Z,19.55
2018-05-09T00:49:17.544Z,19.52
2018-05-09T00:50:17.540Z,19.60
2018-05-09T00:51:17.539Z,19.55
2018-05-09T00:52:17.544Z,19.53
2018-05-09T00:53:17.542Z,19.53
2018-05-09T00:54:17.536Z,19.53
2018-05-09T00:55:17.538Z,19.49
2018-05-09T00:56:17.536Z,19.47
2018-05-09T00:57:17.535Z,19.57
2018-05-09T00:58:17.539Z,19.47
2018-05-09T00:59:17.539Z,19.50
2018-05-09T01:00:17.539Z,19.46
2018-05-09T01:01:17.537Z,19.45
2018-05-09T01:02:17.532Z,19.46
2018-05-09T01:03:17.534Z,19.42
2018-05-09T01:04:17.532Z,19.38
2018-05-09T01:05:17.532Z,19.39
2018-05-09T01:06:17.537Z,19.45
2018-05-09T01:07:17.536Z,19.43
2018-05-09T01:08:17.535Z,19.43
2018-05-09T01:09:17.529Z,19.40
2018-05-09T01:10:17.534Z,19.47
2018-05-09T01:11:17.533Z,19.47
2018-05-09T01:12:17.532Z,19.40
2018-05-09T01:13:17.531Z,19.38
2018-05-09T01:14:17.526Z,19.35
2018-05-09T01:15:17.526Z,19.35
2018-05-09T01:16:17.606Z,19.24
2018-05-09T01:17:17.524Z,19.21
2018-05-09T01:18:17.528Z,19.16
2018-05-09T01:19:17.528Z,19.06
2018-05-09T01:20:17.528Z,18.99
2018-05-09T01:21:17.526Z,18.96
2018-05-09T01:22:17.523Z,18.82
2018-05-09T01:23:17.521Z,18.71
2018-05-09T01:24:17.525Z,18.66
2018-05-09T01:25:17.523Z,18.51
2018-05-09T01:26:17.576Z,18.36
2018-05-09T01:27:17.518Z,18.38
2018-05-09T01:28:17.517Z,18.39
2018-05-09T01:29:17.516Z,18.20
2018-05-09T01:30:17.521Z,18.11
2018-05-09T01:31:17.520Z,17.98
2018-05-09T01:32:17.519Z,17.84
2018-05-09T01:33:17.519Z,17.86
2018-05-09T01:34:17.513Z,17.83
2018-05-09T01:35:17.512Z,17.79
2018-05-09T01:36:17.511Z,17.71
2018-05-09T01:37:17.510Z,17.68
2018-05-09T01:38:17.514Z,17.60
2018-05-09T01:39:17.513Z,17.53
2018-05-09T01:40:17.508Z,17.55
2018-05-09T01:41:17.506Z,17.43
2018-05-09T01:42:17.513Z,17.42
2018-05-09T01:43:17.509Z,17.38
2018-05-09T01:44:17.515Z,17.35
2018-05-09T01:45:17.508Z,17.28
2018-05-09T01:46:17.502Z,17.30
2018-05-09T01:47:17.504Z,17.25
2018-05-09T01:48:17.500Z,17.22
2018-05-09T01:49:17.499Z,17.12
2018-05-09T01:50:17.505Z,17.10
2018-05-09T01:51:17.506Z,17.03
2018-05-09T01:52:17.501Z,17.02
2018-05-09T01:53:17.500Z,16.95
2018-05-09T01:54:17.495Z,16.95
2018-05-09T01:55:17.492Z,16.91
2018-05-09T01:56:17.495Z,16.92
2018-05-09T01:57:17.494Z,16.85
2018-05-09T01:58:17.488Z,16.81
2018-05-09T01:59:17.487Z,16.82
2018-05-09T02:00:17.487Z,16.80
2018-05-09T02:01:17.484Z,16.78
2018-05-09T02:02:17.488Z,16.69
2018-05-09T02:03:17.488Z,16.60
2018-05-09T02:04:17.487Z,16.54
2018-05-09T02:05:17.485Z,16.54
2018-05-09T02:06:17.479Z,16.54
2018-05-09T02:07:17.477Z,16.54
2018-05-09T02:08:17.476Z,16.50
2018-05-09T02:09:17.474Z,16.44
2018-05-09T02:10:17.477Z,16.37
2018-05-09T02:11:17.476Z,16.37
2018-05-09T02:12:17.470Z,16.25
2018-05-09T02:13:17.467Z,16.32
2018-05-09T02:14:17.471Z,16.16
2018-05-09T02:15:17.473Z,16.23
2018-05-09T02:16:17.468Z,16.13
2018-05-09T02:17:17.468Z,16.10
2018-05-09T02:18:17.461Z,16.01
2018-05-09T02:19:17.459Z,16.04
2018-05-09T02:20:17.457Z,15.92
2018-05-09T02:21:17.455Z,15.91
2018-05-09T02:22:17.458Z,15.91
2018-05-09T02:23:17.457Z,15.86
2018-05-09T02:24:17.460Z,15.86
2018-05-09T02:25:17.456Z,15.88
2018-05-09T02:26:17.451Z,15.84
2018-05-09T02:27:17.446Z,15.76
2018-05-09T02:28:17.450Z,15.77
2018-05-09T02:29:17.448Z,15.67
2018-05-09T02:30:17.441Z,15.67
2018-05-09T02:31:17.559Z,15.68
2018-05-09T02:32:17.438Z,15.66
2018-05-09T02:33:17.435Z,15.60
2018-05-09T02:34:17.454Z,15.51
2018-05-09T02:35:17.437Z,15.49
2018-05-09T02:36:17.435Z,15.51
2018-05-09T02:37:17.432Z,15.59
2018-05-09T02:38:17.428Z,15.48
2018-05-09T02:39:17.425Z,15.51
2018-05-09T02:40:17.425Z,15.53
2018-05-09T02:41:17.420Z,15.51
2018-05-09T02:42:17.424Z,15.44
2018-05-09T02:43:17.423Z,15.48
2018-05-09T02:44:17.416Z,15.49
2018-05-09T02:45:17.413Z,15.46
2018-05-09T02:46:17.419Z,15.48
2018-05-09T02:47:17.416Z,15.40
2018-05-09T02:48:17.412Z,15.35
2018-05-09T02:49:17.417Z,15.48
2018-05-09T02:50:17.407Z,15.41
2018-05-09T02:51:17.402Z,15.43
2018-05-09T02:52:17.401Z,15.37
2018-05-09T02:53:17.399Z,15.41
2018-05-09T02:54:17.400Z,15.44
2018-05-09T02:55:17.399Z,15.46
2018-05-09T02:56:17.397Z,15.43
2018-05-09T02:57:17.396Z,15.37
2018-05-09T02:58:17.388Z,15.35
2018-05-09T02:59:17.386Z,15.31
2018-05-09T03:00:17.390Z,15.31
2018-05-09T03:01:17.434Z,15.35
2018-05-09T03:02:17.380Z,15.27
2018-05-09T03:03:17.377Z,15.22
2018-05-09T03:04:17.375Z,15.15
2018-05-09T03:05:17.372Z,15.11
2018-05-09T03:06:17.379Z,15.16
2018-05-09T03:07:17.372Z,15.00
2018-05-09T03:08:17.370Z,15.07
2018-05-09T03:09:17.367Z,15.09
2018-05-09T03:10:17.360Z,15.07
2018-05-09T03:11:17.358Z,15.01
2018-05-09T03:12:17.357Z,15.04
2018-05-09T03:13:17.354Z,14.97
2018-05-09T03:14:17.358Z,15.04
2018-05-09T03:15:17.354Z,15.01
2018-05-09T03:16:17.347Z,15.03
2018-05-09T03:17:17.346Z,14.94
2018-05-09T03:18:17.347Z,14.85
2018-05-09T03:19:17.344Z,14.87
2018-05-09T03:20:17.343Z,14.90
2018-05-09T03:21:17.339Z,14.86
2018-05-09T03:22:17.332Z,14.98
2018-05-09T03:23:17.333Z,14.90
2018-05-09T03:24:17.328Z,14.82
2018-05-09T03:25:17.325Z,14.80
2018-05-09T03:26:17.328Z,14.87
2018-05-09T03:27:17.330Z,14.80
2018-05-09T03:28:17.324Z,14.82
2018-05-09T03:29:17.320Z,14.85
2018-05-09T03:30:17.315Z,14.78
2018-05-09T03:31:17.313Z,14.67
2018-05-09T03:32:17.314Z,14.71
2018-05-09T03:33:17.312Z,14.72
2018-05-09T03:34:17.306Z,14.66
2018-05-09T03:35:17.310Z,14.67
2018-05-09T03:36:17.301Z,14.64
2018-05-09T03:37:17.297Z,14.61
2018-05-09T03:38:17.299Z,14.52
2018-05-09T03:39:17.297Z,14.61
2018-05-09T03:40:17.296Z,14.41
2018-05-09T03:41:17.292Z,14.49
2018-05-09T03:42:17.286Z,14.46
2018-05-09T03:43:17.283Z,14.45
2018-05-09T03:44:17.281Z,14.44
2018-05-09T03:45:17.277Z,14.38
2018-05-09T03:46:17.279Z,14.42
2018-05-09T03:47:17.277Z,14.44
2018-05-09T03:48:17.269Z,14.44
2018-05-09T03:49:17.267Z,14.36
2018-05-09T03:50:17.269Z,14.42
2018-05-09T03:51:17.266Z,14.42
2018-05-09T03:52:17.266Z,14.44
2018-05-09T03:53:17.367Z,14.42
2018-05-09T03:54:17.254Z,14.48
2018-05-09T03:55:17.251Z,14.39
2018-05-09T03:56:17.250Z,14.42
2018-05-09T03:57:17.249Z,14.38
2018-05-09T03:58:17.335Z,14.39
2018-05-09T03:59:17.247Z,14.42
2018-05-09T04:00:17.242Z,14.45
2018-05-09T04:01:17.239Z,14.42
2018-05-09T04:02:17.233Z,14.38
2018-05-09T04:03:17.230Z,14.41
2018-05-09T04:04:17.233Z,14.53
2018-05-09T04:05:17.230Z,14.44
2018-05-09T04:06:17.224Z,14.46
2018-05-09T04:07:17.221Z,14.60
2018-05-09T04:08:17.218Z,14.57
2018-05-09T04:09:17.217Z,14.60
2018-05-09T04:10:17.216Z,14.60
2018-05-09T04:11:17.218Z,14.56
2018-05-09T04:12:17.213Z,14.56
2018-05-09T04:13:17.217Z,14.60
2018-05-09T04:14:17.201Z,14.59
2018-05-09T04:15:17.199Z,14.52
2018-05-09T04:16:17.196Z,14.60
2018-05-09T04:17:17.192Z,14.60
2018-05-09T04:18:17.195Z,14.61
2018-05-09T04:19:17.192Z,14.72
2018-05-09T04:20:17.186Z,14.54
2018-05-09T04:21:17.185Z,14.71
2018-05-09T04:22:17.184Z,14.67
2018-05-09T04:23:17.182Z,14.74
2018-05-09T04:24:17.275Z,14.69
2018-05-09T04:25:17.177Z,14.82
2018-05-09T04:26:17.171Z,14.80
2018-05-09T04:27:17.169Z,14.75
2018-05-09T04:28:17.234Z,14.86
2018-05-09T04:29:17.161Z,14.90
2018-05-09T04:30:17.164Z,14.94
2018-05-09T04:31:17.162Z,15.01
2018-05-09T04:32:17.160Z,15.04
2018-05-09T04:33:17.158Z,15.04
2018-05-09T04:34:17.151Z,15.15
2018-05-09T04:35:17.149Z,15.13
2018-05-09T04:36:17.247Z,15.18
2018-05-09T04:37:17.148Z,15.30
2018-05-09T04:38:17.141Z,15.48
2018-05-09T04:39:17.139Z,15.37
2018-05-09T04:40:17.137Z,15.44
2018-05-09T04:41:17.135Z,15.53
2018-05-09T04:42:17.136Z,15.67
2018-05-09T04:43:17.135Z,15.76
2018-05-09T04:44:17.135Z,15.89
2018-05-09T04:45:17.131Z,15.95
2018-05-09T04:46:17.125Z,16.16
2018-05-09T04:47:17.127Z,16.34
2018-05-09T04:48:17.123Z,16.57
2018-05-09T04:49:17.168Z,16.75
2018-05-09T04:50:17.125Z,16.95
2018-05-09T04:51:17.124Z,17.22
2018-05-09T04:52:17.118Z,17.43
2018-05-09T04:53:17.123Z,17.57
2018-05-09T04:54:17.121Z,17.98
2018-05-09T04:55:17.121Z,18.23
2018-05-09T04:56:17.119Z,18.49
2018-05-09T04:57:17.119Z,18.93
2018-05-09T04:58:17.115Z,19.15
2018-05-09T04:59:17.115Z,19.52
2018-05-09T05:00:17.116Z,19.92
2018-05-09T05:01:17.115Z,20.33
2018-05-09T05:02:17.121Z,20.64
2018-05-09T05:03:17.124Z,20.88
2018-05-09T05:04:17.123Z,21.21
2018-05-09T05:05:17.124Z,21.46
2018-05-09T05:06:17.120Z,21.81
2018-05-09T05:07:17.121Z,22.09
2018-05-09T05:08:17.128Z,22.29
2018-05-09T05:09:17.129Z,22.59
2018-05-09T05:10:17.126Z,22.86
2018-05-09T05:11:17.131Z,23.22
2018-05-09T05:12:17.129Z,23.38
2018-05-09T05:13:17.131Z,23.57
2018-05-09T05:14:17.138Z,23.90
2018-05-09T05:15:17.140Z,24.11
2018-05-09T05:16:17.143Z,24.27
2018-05-09T05:17:17.145Z,24.61
2018-05-09T05:18:17.144Z,24.86
2018-05-09T05:19:17.146Z,25.12
2018-05-09T05:20:17.150Z,25.27
2018-05-09T05:21:17.152Z,25.42
2018-05-09T05:22:17.161Z,25.63
2018-05-09T05:23:17.164Z,25.85
2018-05-09T05:24:17.163Z,26.06
2018-05-09T05:25:17.167Z,26.03
2018-05-09T05:26:17.175Z,26.29
2018-05-09T05:27:17.180Z,26.54
2018-05-09T05:28:17.184Z,26.72
2018-05-09T05:29:17.186Z,26.96
2018-05-09T05:30:17.187Z,27.16
2018-05-09T05:31:17.191Z,27.39
2018-05-09T05:32:17.196Z,27.63
2018-05-09T05:33:17.200Z,27.59
2018-05-09T05:34:17.212Z,27.88
2018-05-09T05:35:17.216Z,27.99
2018-05-09T05:36:17.219Z,28.14
2018-05-09T05:37:17.223Z,28.35
2018-05-09T05:38:17.224Z,28.70
2018-05-09T05:39:17.230Z,28.91
2018-05-09T05:40:17.241Z,29.11
2018-05-09T05:41:17.244Z,29.41
2018-05-09T05:42:17.247Z,29.66
2018-05-09T05:43:17.252Z,29.91
2018-05-09T05:44:17.259Z,30.25
2018-05-09T05:45:17.482Z,30.36
2018-05-09T05:46:17.277Z,30.49
2018-05-09T05:47:17.282Z,30.59
2018-05-09T05:48:17.289Z,30.67
2018-05-09T05:49:17.293Z,30.91
2018-05-09T05:50:17.296Z,31.05
2018-05-09T05:51:17.302Z,31.04
2018-05-09T05:52:17.309Z,31.37
2018-05-09T05:53:17.317Z,31.49
2018-05-09T05:54:17.326Z,31.64
2018-05-09T05:55:17.335Z,31.76
2018-05-09T05:56:17.337Z,31.90
2018-05-09T05:57:17.344Z,32.12
2018-05-09T05:58:17.359Z,32.14
2018-05-09T05:59:17.364Z,32.31
2018-05-09T06:00:17.378Z,32.21
2018-05-09T06:01:17.384Z,32.24
2018-05-09T06:02:17.383Z,32.25
2018-05-09T06:03:17.390Z,32.56
2018-05-09T06:04:17.399Z,32.50
2018-05-09T06:05:17.408Z,32.71
2018-05-09T06:06:17.523Z,32.85
2018-05-09T06:07:17.430Z,32.95
2018-05-09T06:08:17.437Z,32.90
2018-05-09T06:09:17.445Z,33.11
2018-05-09T06:10:17.450Z,33.09
2018-05-09T06:11:17.460Z,33.45
2018-05-09T06:12:17.473Z,33.71
2018-05-09T06:13:17.480Z,33.87
2018-05-09T06:14:17.485Z,33.89
2018-05-09T06:15:17.494Z,33.09
2018-05-09T06:16:17.508Z,33.28
2018-05-09T06:17:17.562Z,33.62
2018-05-09T06:18:17.529Z,33.77
2018-05-09T06:19:17.539Z,33.93
2018-05-09T06:20:17.549Z,33.87
2018-05-09T06:21:17.558Z,33.99
2018-05-09T06:22:17.563Z,34.19
2018-05-09T06:23:17.573Z,34.27
2018-05-09T06:24:17.793Z,34.58
2018-05-09T06:25:17.593Z,34.43
2018-05-09T06:26:17.608Z,34.50
2018-05-09T06:27:17.618Z,34.58
2018-05-09T06:28:17.625Z,34.65
2018-05-09T06:29:17.642Z,34.71
2018-05-09T06:30:17.650Z,34.83
2018-05-09T06:31:17.665Z,34.93
2018-05-09T06:32:17.673Z,34.90
2018-05-09T06:33:17.685Z,33.99
2018-05-09T06:34:17.692Z,34.00
2018-05-09T06:35:17.702Z,33.94
2018-05-09T06:36:17.714Z,33.97
2018-05-09T06:37:17.725Z,34.27
2018-05-09T06:38:17.742Z,34.71
2018-05-09T06:39:17.753Z,34.90
2018-05-09T06:40:17.767Z,34.94
2018-05-09T06:41:17.778Z,34.95
2018-05-09T06:42:17.784Z,34.98
2018-05-09T06:43:17.802Z,34.99
2018-05-09T06:44:17.815Z,35.12
2018-05-09T06:45:17.826Z,35.03
2018-05-09T06:46:17.833Z,35.13
2018-05-09T06:47:17.846Z,34.81
2018-05-09T06:48:17.858Z,33.63
2018-05-09T06:49:17.870Z,32.90
2018-05-09T06:50:17.887Z,32.50
2018-05-09T06:51:17.901Z,32.35
2018-05-09T06:52:17.914Z,32.51
2018-05-09T06:53:17.925Z,32.53
2018-05-09T06:54:17.938Z,32.02
2018-05-09T06:55:17.948Z,31.35
2018-05-09T06:56:17.961Z,31.46
2018-05-09T06:57:17.973Z,31.28
2018-05-09T06:58:17.993Z,31.03
2018-05-09T06:59:18.005Z,30.32
2018-05-09T07:00:18.014Z,30.26
2018-05-09T07:01:18.027Z,30.76
2018-05-09T07:02:18.045Z,30.25
2018-05-09T07:03:18.059Z,30.44
2018-05-09T07:04:18.075Z,30.67
2018-05-09T07:05:18.083Z,30.45
2018-05-09T07:06:18.312Z,30.73
2018-05-09T07:07:18.107Z,30.30
2018-05-09T07:08:18.186Z,30.25
2018-05-09T07:09:18.134Z,31.18
2018-05-09T07:10:18.151Z,30.70
2018-05-09T07:11:18.165Z,30.86
2018-05-09T07:12:18.180Z,30.79
2018-05-09T07:13:18.194Z,30.23
2018-05-09T07:14:18.202Z,30.34
2018-05-09T07:15:18.216Z,31.05
2018-05-09T07:16:18.234Z,30.53
2018-05-09T07:17:18.249Z,30.66
2018-05-09T07:18:18.258Z,29.86
2018-05-09T07:19:18.272Z,30.34
2018-05-09T07:20:18.286Z,31.09
2018-05-09T07:21:18.299Z,31.78
2018-05-09T07:22:18.324Z,31.92
2018-05-09T07:23:18.340Z,32.72
2018-05-09T07:24:18.347Z,32.02
2018-05-09T07:25:18.360Z,31.01
2018-05-09T07:26:18.371Z,31.98
2018-05-09T07:27:18.384Z,32.88
2018-05-09T07:28:18.400Z,33.28
2018-05-09T07:29:18.412Z,34.08
2018-05-09T07:30:18.435Z,33.81
2018-05-09T07:31:18.447Z,33.02
2018-05-09T07:32:18.457Z,33.92
2018-05-09T07:33:18.471Z,33.60
2018-05-09T07:34:18.491Z,31.84
2018-05-09T07:35:18.507Z,32.77
2018-05-09T07:36:18.521Z,33.11
2018-05-09T07:37:18.536Z,33.77
2018-05-09T07:38:18.546Z,34.49
2018-05-09T07:39:18.625Z,34.31
2018-05-09T07:40:18.577Z,34.69
2018-05-09T07:41:18.592Z,35.06
2018-05-09T07:42:18.710Z,34.72
2018-05-09T07:43:18.629Z,35.61
2018-05-09T07:44:18.644Z,34.09
2018-05-09T07:45:18.658Z,35.12
2018-05-09T07:46:18.670Z,35.25
2018-05-09T07:47:18.688Z,35.61
2018-05-09T07:48:18.708Z,35.29
2018-05-09T07:49:18.723Z,34.95
2018-05-09T07:50:18.736Z,32.72
2018-05-09T07:51:18.751Z,32.12
2018-05-09T07:52:18.767Z,32.87
2018-05-09T07:53:18.783Z,32.85
2018-05-09T07:54:18.804Z,33.24
2018-05-09T07:55:18.822Z,33.60
2018-05-09T07:56:18.839Z,33.55
2018-05-09T07:57:18.854Z,34.06
2018-05-09T07:58:18.865Z,34.86
2018-05-09T07:59:18.883Z,34.40
2018-05-09T08:00:18.900Z,34.86
2018-05-09T08:01:18.915Z,34.30
2018-05-09T08:02:18.936Z,34.64
2018-05-09T08:03:18.953Z,34.86
2018-05-09T08:04:18.970Z,33.06
2018-05-09T08:05:18.982Z,34.05
2018-05-09T08:06:19.003Z,34.93
2018-05-09T08:07:19.020Z,35.59
2018-05-09T08:08:19.039Z,36.03
2018-05-09T08:09:19.058Z,35.50
2018-05-09T08:10:19.066Z,35.49
2018-05-09T08:11:19.084Z,35.66
2018-05-09T08:12:19.105Z,34.63
2018-05-09T08:13:19.118Z,36.08
2018-05-09T08:14:19.141Z,36.93
2018-05-09T08:15:19.160Z,35.92
2018-05-09T08:16:19.179Z,35.71
2018-05-09T08:17:19.193Z,36.59
2018-05-09T08:18:19.206Z,36.94
2018-05-09T08:19:19.224Z,37.47
2018-05-09T08:20:19.246Z,36.67
2018-05-09T08:21:19.263Z,37.28
2018-05-09T08:22:19.277Z,37.42
2018-05-09T08:23:19.295Z,36.87
2018-05-09T08:24:19.314Z,35.25
2018-05-09T08:25:19.332Z,34.90
2018-05-09T08:26:19.356Z,35.10
2018-05-09T08:27:19.373Z,36.57
2018-05-09T08:28:19.393Z,36.91
2018-05-09T08:29:19.411Z,37.28
2018-05-09T08:30:19.473Z,37.63
2018-05-09T08:31:19.442Z,36.28
2018-05-09T08:32:19.460Z,35.98
2018-05-09T08:33:19.479Z,36.11
2018-05-09T08:34:19.503Z,36.93
2018-05-09T08:35:19.521Z,36.46
2018-05-09T08:36:19.618Z,36.13
2018-05-09T08:37:19.554Z,33.78
2018-05-09T08:38:19.580Z,34.05
2018-05-09T08:39:19.596Z,34.99
2018-05-09T08:40:19.617Z,34.91
2018-05-09T08:41:19.633Z,34.24
2018-05-09T08:42:19.649Z,35.18
2018-05-09T08:43:19.765Z,35.12
2018-05-09T08:44:19.686Z,35.71
2018-05-09T08:45:19.704Z,35.92
2018-05-09T08:46:19.729Z,36.41
2018-05-09T08:47:19.748Z,36.38
2018-05-09T08:48:19.766Z,37.13
2018-05-09T08:49:19.872Z,37.66
2018-05-09T08:50:19.799Z,38.31
2018-05-09T08:51:19.818Z,37.96
2018-05-09T08:52:19.842Z,35.83
2018-05-09T08:53:19.860Z,37.11
2018-05-09T08:54:19.876Z,36.83
2018-05-09T08:55:19.964Z,37.30
2018-05-09T08:56:19.914Z,36.57
2018-05-09T08:57:19.934Z,36.65
2018-05-09T08:58:19.958Z,35.99
2018-05-09T08:59:19.976Z,36.13
2018-05-09T09:00:19.995Z,34.91
2018-05-09T09:01:20.015Z,36.02
2018-05-09T09:02:20.030Z,36.55
2018-05-09T09:03:20.049Z,36.12
2018-05-09T09:04:20.186Z,36.50
2018-05-09T09:05:20.087Z,36.12
2018-05-09T09:06:20.124Z,35.36
2018-05-09T09:07:20.130Z,34.21
2018-05-09T09:08:20.147Z,33.71
2018-05-09T09:09:20.163Z,33.89
2018-05-09T09:10:20.187Z,35.27
2018-05-09T09:11:20.207Z,36.43
2018-05-09T09:12:20.227Z,37.28
2018-05-09T09:13:20.247Z,38.00
2018-05-09T09:14:20.261Z,38.84
2018-05-09T09:15:20.355Z,38.87
2018-05-09T09:16:20.302Z,37.59
2018-05-09T09:17:20.317Z,38.56
2018-05-09T09:18:20.342Z,38.67
2018-05-09T09:19:20.362Z,39.87
2018-05-09T09:20:20.382Z,39.59
2018-05-09T09:21:20.400Z,39.48
2018-05-09T09:22:20.415Z,39.66
2018-05-09T09:23:20.435Z,39.99
2018-05-09T09:24:20.460Z,40.56
2018-05-09T09:25:20.479Z,40.71
2018-05-09T09:26:20.495Z,39.17
2018-05-09T09:27:20.516Z,37.39
2018-05-09T09:28:20.536Z,36.84
2018-05-09T09:29:20.555Z,37.18
2018-05-09T09:30:20.581Z,36.44
2018-05-09T09:31:20.601Z,36.35
2018-05-09T09:32:20.621Z,37.33
2018-05-09T09:33:20.640Z,37.47
2018-05-09T09:34:20.654Z,38.16
2018-05-09T09:35:20.674Z,38.37
2018-05-09T09:36:20.694Z,38.40
2018-05-09T09:37:20.713Z,39.07
2018-05-09T09:38:20.740Z,38.04
2018-05-09T09:39:20.760Z,37.75
2018-05-09T09:40:20.773Z,37.16
2018-05-09T09:41:20.818Z,37.47
2018-05-09T09:42:20.816Z,36.72
2018-05-09T09:43:20.835Z,36.00
2018-05-09T09:44:20.854Z,35.20
2018-05-09T09:45:20.873Z,35.12
2018-05-09T09:46:20.888Z,34.42
2018-05-09T09:47:20.908Z,34.67
2018-05-09T09:48:20.926Z,35.55
2018-05-09T09:49:20.943Z,35.93
2018-05-09T09:50:20.966Z,36.33
2018-05-09T09:51:20.985Z,36.65
2018-05-09T09:52:21.004Z,37.11
2018-05-09T09:53:21.023Z,37.18
2018-05-09T09:54:21.035Z,37.20
2018-05-09T09:55:21.055Z,37.02
2018-05-09T09:56:21.079Z,37.47
2018-05-09T09:57:21.095Z,37.45
2018-05-09T09:58:21.112Z,37.23
2018-05-09T09:59:21.129Z,37.93
2018-05-09T10:00:21.147Z,38.95
2018-05-09T10:01:21.164Z,39.38
2018-05-09T10:02:21.187Z,39.65
2018-05-09T10:03:21.207Z,39.28
2018-05-09T10:04:21.226Z,39.92
2018-05-09T10:05:21.245Z,39.66
2018-05-09T10:06:21.258Z,40.72
2018-05-09T10:07:21.278Z,41.33
2018-05-09T10:08:21.298Z,41.73
2018-05-09T10:09:21.318Z,40.78
2018-05-09T10:10:21.341Z,39.12
2018-05-09T10:11:21.362Z,39.16
2018-05-09T10:12:21.376Z,39.61
2018-05-09T10:13:21.396Z,38.98
2018-05-09T10:14:21.421Z,38.95
2018-05-09T10:15:21.440Z,38.70
2018-05-09T10:16:21.508Z,37.62
2018-05-09T10:17:21.478Z,37.31
2018-05-09T10:18:21.494Z,36.12
2018-05-09T10:19:21.514Z,36.05
2018-05-09T10:20:21.534Z,36.44
2018-05-09T10:21:21.552Z,36.48
2018-05-09T10:22:21.577Z,36.28
2018-05-09T10:23:21.665Z,36.27
2018-05-09T10:24:21.616Z,36.33
2018-05-09T10:25:21.634Z,36.99
2018-05-09T10:26:21.649Z,37.11
2018-05-09T10:27:21.669Z,36.89
2018-05-09T10:28:21.691Z,36.11
2018-05-09T10:29:21.711Z,35.95
2018-05-09T10:30:21.724Z,35.40
2018-05-09T10:31:21.767Z,35.50
2018-05-09T10:32:21.762Z,36.03
2018-05-09T10:33:21.779Z,35.91
2018-05-09T10:34:21.803Z,36.62
2018-05-09T10:35:21.821Z,35.18
2018-05-09T10:36:21.840Z,35.07
2018-05-09T10:37:21.858Z,35.71
2018-05-09T10:38:21.871Z,36.55
2018-05-09T10:39:21.890Z,37.28
2018-05-09T10:40:21.908Z,37.59
2018-05-09T10:41:21.926Z,37.18
2018-05-09T10:42:21.949Z,36.99
2018-05-09T10:43:21.969Z,36.40
2018-05-09T10:44:21.981Z,36.68
2018-05-09T10:45:22.000Z,37.05
2018-05-09T10:46:22.022Z,37.97
2018-05-09T10:47:22.041Z,39.06
2018-05-09T10:48:22.059Z,39.05
2018-05-09T10:49:22.077Z,38.77
2018-05-09T10:50:22.092Z,39.44
2018-05-09T10:51:22.111Z,39.05
2018-05-09T10:52:22.131Z,39.06
2018-05-09T10:53:22.151Z,38.92
2018-05-09T10:54:22.174Z,38.60
2018-05-09T10:55:22.194Z,38.09
2018-05-09T10:56:22.212Z,37.42
2018-05-09T10:57:22.231Z,37.39
2018-05-09T10:58:22.246Z,36.69
2018-05-09T10:59:22.266Z,37.04
2018-05-09T11:00:22.289Z,37.68
2018-05-09T11:01:22.308Z,37.73
2018-05-09T11:02:22.322Z,37.65
2018-05-09T11:03:22.341Z,37.59
2018-05-09T11:04:22.361Z,37.96
2018-05-09T11:05:22.378Z,38.44
2018-05-09T11:06:22.402Z,37.85
2018-05-09T11:07:22.421Z,37.47
2018-05-09T11:08:22.440Z,36.87
2018-05-09T11:09:22.458Z,35.59
2018-05-09T11:10:22.500Z,35.17
2018-05-09T11:11:22.491Z,35.55
2018-05-09T11:12:22.509Z,35.64
2018-05-09T11:13:22.526Z,35.95
2018-05-09T11:14:22.548Z,36.12
2018-05-09T11:15:22.566Z,35.17
2018-05-09T11:16:22.580Z,34.12
2018-05-09T11:17:22.600Z,33.78
2018-05-09T11:18:22.621Z,34.09
2018-05-09T11:19:22.638Z,34.58
2018-05-09T11:20:22.656Z,34.30
2018-05-09T11:21:22.671Z,34.23
2018-05-09T11:22:22.683Z,34.30
2018-05-09T11:23:22.699Z,33.37
2018-05-09T11:24:22.785Z,32.36
2018-05-09T11:25:22.730Z,32.16
2018-05-09T11:26:22.751Z,32.21
2018-05-09T11:27:22.768Z,31.92
2018-05-09T11:28:22.780Z,31.90
2018-05-09T11:29:22.795Z,31.90
2018-05-09T11:30:22.810Z,32.07
2018-05-09T11:31:22.819Z,32.31
2018-05-09T11:32:22.837Z,31.97
2018-05-09T11:33:22.850Z,31.09
2018-05-09T11:34:22.861Z,31.16
2018-05-09T11:35:22.875Z,30.49
2018-05-09T11:36:22.890Z,30.79
2018-05-09T11:37:22.972Z,30.37
2018-05-09T11:38:22.915Z,30.22
2018-05-09T11:39:22.926Z,30.40
2018-05-09T11:40:22.938Z,30.68
2018-05-09T11:41:22.948Z,31.00
2018-05-09T11:42:22.958Z,31.03
2018-05-09T11:43:22.966Z,31.20
2018-05-09T11:44:22.975Z,31.42
2018-05-09T11:45:22.985Z,31.56
2018-05-09T11:46:23.000Z,31.45
2018-05-09T11:47:23.011Z,31.57
2018-05-09T11:48:23.015Z,31.56
2018-05-09T11:49:23.024Z,31.19
2018-05-09T11:50:23.041Z,30.82
2018-05-09T11:51:23.048Z,30.49
2018-05-09T11:52:23.057Z,30.51
2018-05-09T11:53:23.065Z,30.48
2018-05-09T11:54:23.073Z,30.42
2018-05-09T11:55:23.080Z,30.66
2018-05-09T11:56:23.089Z,30.46
2018-05-09T11:57:23.096Z,30.54
2018-05-09T11:58:23.110Z,30.29
2018-05-09T11:59:23.118Z,30.07
2018-05-09T12:00:23.136Z,30.11
2018-05-09T12:01:23.134Z,30.21
2018-05-09T12:02:23.138Z,30.36
2018-05-09T12:03:23.147Z,30.51
2018-05-09T12:04:23.160Z,30.34
2018-05-09T12:05:23.166Z,30.21
2018-05-09T12:06:23.170Z,30.04
2018-05-09T12:07:23.179Z,29.91
2018-05-09T12:08:23.186Z,29.92
2018-05-09T12:09:23.193Z,30.13
2018-05-09T12:10:23.323Z,29.92
2018-05-09T12:11:23.213Z,29.48
2018-05-09T12:12:23.231Z,29.44
2018-05-09T12:13:23.231Z,29.60
2018-05-09T12:14:23.234Z,29.79
2018-05-09T12:15:23.241Z,29.81
2018-05-09T12:16:23.259Z,29.99
2018-05-09T12:17:23.255Z,30.21
2018-05-09T12:18:23.270Z,30.26
2018-05-09T12:19:23.277Z,30.22
2018-05-09T12:20:23.281Z,30.29
2018-05-09T12:21:23.289Z,30.34
2018-05-09T12:22:23.295Z,30.57
2018-05-09T12:23:23.303Z,30.76
2018-05-09T12:24:23.312Z,31.01
2018-05-09T12:25:23.315Z,31.05
2018-05-09T12:26:23.319Z,31.37
2018-05-09T12:27:24.048Z,31.22
2018-05-09T12:28:23.803Z,30.51
2018-05-09T12:32:23.367Z,30.19
2018-05-09T12:33:23.372Z,30.30
2018-05-09T12:34:23.392Z,30.37
2018-05-09T12:35:23.405Z,30.46
2018-05-09T12:36:23.442Z,30.61
2018-05-09T12:37:23.402Z,30.61
2018-05-09T12:38:23.404Z,30.44
2018-05-09T12:39:23.411Z,30.72
2018-05-09T12:40:23.451Z,30.83
2018-05-09T12:41:23.669Z,31.04
2018-05-09T12:42:23.441Z,31.35
2018-05-09T12:43:23.443Z,31.49
2018-05-09T12:44:23.455Z,31.65
2018-05-09T12:45:23.459Z,31.67
2018-05-09T12:46:23.463Z,31.85
2018-05-09T12:47:23.471Z,31.98
2018-05-09T12:48:23.480Z,32.06
2018-05-09T12:49:23.479Z,32.21
2018-05-09T12:50:23.493Z,32.31
2018-05-09T12:51:23.504Z,32.22
2018-05-09T12:52:23.502Z,31.52
2018-05-09T12:53:23.509Z,31.04
2018-05-09T12:54:23.520Z,30.82
2018-05-09T12:55:23.529Z,31.05